Time;durP1;ratioP1;P1;durP2;ratioP2;P2;SDS_P1;SDS_P2;PMS_P1;PMS_P2;Temp;Humidity;BMP_temperature;BMP_pressure;BME280_temperature;BME280_humidity;BME280_pressure;Samples;Min_cycle;Max_cycle;Signal;HPM_P1;HPM_P2
2023/05/13 00:01:14;;;;;;;12.77;9.50;;;14.00;99.90;;;;;;5072752;28;20215;-88
2023/05/13 00:03:41;;;;;;;15.27;10.35;;;13.90;99.90;;;;;;5074368;28;20367;-88
2023/05/13 00:06:07;;;;;;;16.60;10.70;;;13.90;99.90;;;;;;5086056;28;20174;-87
2023/05/13 00:08:33;;;;;;;15.18;10.93;;;13.90;99.90;;;;;;5089851;28;20256;-89
2023/05/13 00:10:59;;;;;;;16.33;10.80;;;13.80;99.90;;;;;;5089974;28;20269;-89
2023/05/13 00:13:25;;;;;;;15.60;10.73;;;13.80;99.90;;;;;;5083076;28;20643;-90
2023/05/13 00:15:51;;;;;;;13.95;10.77;;;13.70;99.90;;;;;;5088915;28;20206;-90
2023/05/13 00:18:17;;;;;;;19.80;11.00;;;13.70;99.90;;;;;;5090022;28;20253;-89
2023/05/13 00:20:43;;;;;;;15.65;10.68;;;13.60;99.90;;;;;;5087182;28;20265;-89
2023/05/13 00:23:10;;;;;;;16.25;10.90;;;13.60;99.90;;;;;;5086717;28;20694;-89
2023/05/13 00:25:36;;;;;;;14.63;10.60;;;13.50;99.90;;;;;;5091918;28;20566;-90
2023/05/13 00:28:02;;;;;;;23.05;11.18;;;13.50;99.90;;;;;;5110067;28;20219;-90
2023/05/13 00:30:28;;;;;;;16.95;12.10;;;13.50;99.90;;;;;;5091961;28;20283;-89
2023/05/13 00:32:54;;;;;;;14.57;11.18;;;13.50;99.90;;;;;;5077177;28;20264;-89
2023/05/13 00:35:20;;;;;;;14.40;10.82;;;13.60;99.90;;;;;;5110432;28;20181;-89
2023/05/13 00:37:45;;;;;;;12.95;10.35;;;13.50;99.90;;;;;;5071078;28;20189;-89
2023/05/13 00:40:22;;;;;;;16.70;9.82;;;13.50;99.90;;;;;;5074841;28;20177;-89
2023/05/13 00:42:49;;;;;;;14.55;10.57;;;13.50;99.90;;;;;;5105212;28;20169;-88
2023/05/13 00:45:15;;;;;;;16.67;10.23;;;13.50;99.90;;;;;;5089133;28;20226;-90
2023/05/13 00:47:41;;;;;;;19.02;11.05;;;13.50;99.90;;;;;;5096170;28;20230;-89
2023/05/13 00:50:09;;;;;;;16.75;11.52;;;13.40;99.90;;;;;;5095965;28;20241;-89
2023/05/13 00:52:37;;;;;;;22.27;11.00;;;13.40;99.90;;;;;;5106653;28;20626;-89
2023/05/13 00:55:04;;;;;;;16.15;11.18;;;13.40;99.90;;;;;;5079245;28;20651;-88
2023/05/13 00:57:30;;;;;;;15.77;10.73;;;13.40;99.90;;;;;;5077285;28;20235;-90
2023/05/13 00:59:56;;;;;;;19.83;11.27;;;13.30;99.90;;;;;;5090966;28;20546;-89
2023/05/13 01:02:36;;;;;;;22.17;11.20;;;13.30;99.90;;;;;;5112623;28;20205;-89
2023/05/13 01:05:22;;;;;;;17.85;10.93;;;13.20;99.90;;;;;;5096367;28;20217;-88
2023/05/13 01:08:22;;;;;;;16.27;11.15;;;13.20;99.90;;;;;;5095632;28;20215;-89
2023/05/13 01:11:20;;;;;;;18.85;11.18;;;13.20;99.90;;;;;;5102556;28;20230;-87
2023/05/13 01:13:52;;;;;;;17.08;10.98;;;13.10;99.90;;;;;;5102528;28;20222;-89
2023/05/13 01:16:26;;;;;;;17.25;10.90;;;13.10;99.90;;;;;;5100353;28;20230;-89
2023/05/13 01:18:56;;;;;;;20.23;11.75;;;13.00;99.90;;;;;;5071052;28;20204;-89
2023/05/13 01:21:27;;;;;;;22.92;11.60;;;13.00;99.90;;;;;;5080773;28;20189;-89
2023/05/13 01:23:54;;;;;;;19.55;11.63;;;13.00;99.90;;;;;;5118516;28;20212;-89
2023/05/13 01:26:22;;;;;;;17.67;11.18;;;13.00;99.90;;;;;;5098779;28;20224;-88
2023/05/13 01:28:49;;;;;;;19.25;11.30;;;13.00;99.90;;;;;;5097828;28;20185;-89
2023/05/13 01:31:14;;;;;;;19.08;11.95;;;12.90;99.90;;;;;;5116918;28;20209;-89
2023/05/13 01:33:42;;;;;;;21.83;12.07;;;12.90;99.90;;;;;;5080326;28;20556;-88
2023/05/13 01:36:09;;;;;;;18.40;11.70;;;12.90;99.90;;;;;;5097196;28;20180;-88
2023/05/13 01:38:38;;;;;;;27.02;12.50;;;12.90;99.90;;;;;;5080421;28;20182;-89
2023/05/13 01:41:04;;;;;;;16.20;11.98;;;12.90;99.90;;;;;;5081852;28;20189;-90
2023/05/13 01:43:30;;;;;;;16.45;12.18;;;12.90;99.90;;;;;;5098406;28;20682;-89
2023/05/13 01:45:59;;;;;;;17.70;12.32;;;12.90;99.90;;;;;;5081013;28;20188;-89
2023/05/13 01:48:25;;;;;;;19.98;12.48;;;12.90;99.90;;;;;;5098040;28;20204;-89
2023/05/13 01:50:52;;;;;;;25.10;12.82;;;12.90;99.90;;;;;;5076086;28;20228;-89
2023/05/13 01:53:18;;;;;;;20.10;12.48;;;12.80;99.90;;;;;;5061840;28;20194;-89
2023/05/13 01:55:45;;;;;;;18.40;12.65;;;12.80;99.90;;;;;;5061382;28;20185;-89
2023/05/13 01:58:10;;;;;;;20.90;12.85;;;12.80;99.90;;;;;;5094093;28;20182;-89
2023/05/13 02:00:36;;;;;;;20.65;13.10;;;12.80;99.90;;;;;;5071925;28;20202;-89
2023/05/13 02:03:02;;;;;;;19.50;13.73;;;12.80;99.90;;;;;;5061298;28;20730;-89
2023/05/13 02:05:30;;;;;;;19.98;13.10;;;12.70;99.90;;;;;;5101289;28;20268;-89
2023/05/13 02:07:56;;;;;;;20.13;13.63;;;12.70;99.90;;;;;;5081705;28;20178;-89
2023/05/13 02:10:22;;;;;;;26.02;14.20;;;12.70;99.90;;;;;;5080642;28;20556;-88
2023/05/13 02:12:48;;;;;;;20.33;13.95;;;12.70;99.90;;;;;;5097583;28;20642;-89
2023/05/13 02:15:14;;;;;;;21.25;13.90;;;12.60;99.90;;;;;;5080765;28;20178;-90
2023/05/13 02:17:39;;;;;;;24.80;14.27;;;12.60;99.90;;;;;;5081881;28;20185;-91
2023/05/13 02:20:06;;;;;;;19.35;14.07;;;12.60;99.90;;;;;;5098313;28;20174;-89
2023/05/13 02:22:32;;;;;;;23.17;14.80;;;12.50;99.90;;;;;;5097610;28;20185;-89
2023/05/13 02:24:58;;;;;;;23.02;15.15;;;12.50;99.90;;;;;;5082800;28;20398;-88
2023/05/13 02:27:23;;;;;;;22.65;13.43;;;12.40;99.90;;;;;;5094335;27;20232;-89
2023/05/13 02:29:49;;;;;;;20.30;14.40;;;12.40;99.90;;;;;;5102417;27;20702;-91
2023/05/13 02:32:15;;;;;;;18.52;13.55;;;12.40;99.90;;;;;;5103823;28;20185;-90
2023/05/13 02:34:44;;;;;;;21.45;14.35;;;12.40;99.90;;;;;;5098700;28;20195;-92
2023/05/13 02:37:10;;;;;;;19.73;13.45;;;12.40;99.90;;;;;;5080593;28;20177;-90
2023/05/13 02:39:44;;;;;;;20.80;13.68;;;12.40;99.90;;;;;;5099334;28;20177;-90
2023/05/13 02:42:10;;;;;;;25.35;14.02;;;12.40;99.90;;;;;;5080409;28;20203;-91
2023/05/13 02:44:36;;;;;;;22.48;14.27;;;12.40;99.90;;;;;;5096772;28;20242;-90
2023/05/13 02:47:02;;;;;;;25.48;14.05;;;12.30;99.90;;;;;;5096781;28;20639;-91
2023/05/13 02:49:27;;;;;;;18.67;13.52;;;12.30;99.90;;;;;;5047053;28;20170;-91
2023/05/13 02:51:54;;;;;;;21.05;14.20;;;12.30;99.90;;;;;;5077811;28;20543;-90
2023/05/13 02:54:25;;;;;;;22.17;13.95;;;12.30;99.90;;;;;;5097748;28;20216;-89
2023/05/13 02:56:51;;;;;;;18.48;14.25;;;12.30;99.90;;;;;;5081845;28;20708;-90
2023/05/13 02:59:16;;;;;;;24.40;14.07;;;12.30;99.90;;;;;;5117244;28;20268;-91
2023/05/13 03:01:42;;;;;;;19.83;14.23;;;12.30;99.90;;;;;;5082084;28;20201;-91
2023/05/13 03:04:08;;;;;;;26.75;14.52;;;12.30;99.90;;;;;;5080423;28;20716;-91
2023/05/13 03:06:33;;;;;;;22.42;14.70;;;12.30;99.90;;;;;;5116168;28;20216;-91
2023/05/13 03:08:59;;;;;;;26.75;14.95;;;12.30;99.90;;;;;;5082536;28;20242;-90
2023/05/13 03:11:25;;;;;;;20.95;15.00;;;12.30;99.90;;;;;;5116678;28;20185;-89
2023/05/13 03:13:51;;;;;;;25.58;15.77;;;12.20;99.90;;;;;;5127856;28;20768;-91
2023/05/13 03:16:17;;;;;;;22.05;15.77;;;12.20;99.90;;;;;;5117505;28;20187;-90
2023/05/13 03:18:42;;;;;;;23.92;15.98;;;12.20;99.90;;;;;;5071285;28;20174;-90
2023/05/13 03:21:08;;;;;;;27.08;15.75;;;12.20;99.90;;;;;;5070320;28;20196;-90
2023/05/13 03:23:34;;;;;;;26.40;16.60;;;12.20;99.90;;;;;;5067971;28;20734;-90
2023/05/13 03:26:01;;;;;;;25.08;16.70;;;12.20;99.90;;;;;;5066822;28;20243;-90
2023/05/13 03:28:27;;;;;;;29.05;16.95;;;12.20;99.90;;;;;;5081215;28;20221;-90
2023/05/13 03:30:53;;;;;;;24.20;16.05;;;12.20;99.90;;;;;;5063901;28;20182;-90
2023/05/13 03:33:19;;;;;;;26.67;16.98;;;12.20;99.90;;;;;;5078755;28;20188;-90
2023/05/13 03:35:47;;;;;;;27.85;17.30;;;12.10;99.90;;;;;;5073579;28;20561;-90
2023/05/13 03:38:13;;;;;;;25.15;17.10;;;12.10;99.90;;;;;;5071308;28;20227;-90
2023/05/13 03:40:43;;;;;;;26.73;16.73;;;12.10;99.90;;;;;;5057558;28;20189;-90
2023/05/13 03:43:09;;;;;;;27.25;17.08;;;12.10;99.90;;;;;;5076639;28;20198;-91
2023/05/13 03:45:37;;;;;;;27.00;17.67;;;12.10;99.90;;;;;;5050859;28;20261;-91
2023/05/13 03:48:07;;;;;;;29.27;18.38;;;12.10;99.90;;;;;;5060854;28;20181;-90
2023/05/13 03:50:33;;;;;;;26.17;17.85;;;12.10;99.90;;;;;;5106674;28;20182;-90
2023/05/13 03:52:58;;;;;;;25.85;17.98;;;12.10;99.90;;;;;;5060249;28;20178;-90
2023/05/13 03:55:25;;;;;;;31.75;18.73;;;12.10;99.90;;;;;;5048336;28;20264;-90
2023/05/13 03:57:50;;;;;;;30.08;18.17;;;12.10;99.90;;;;;;5096787;28;20193;-89
2023/05/13 04:00:19;;;;;;;23.42;17.10;;;12.00;99.90;;;;;;5096867;28;20222;-91
2023/05/13 04:02:47;;;;;;;32.55;17.90;;;12.10;99.90;;;;;;5063086;28;20181;-90
2023/05/13 04:05:13;;;;;;;31.75;17.20;;;12.00;99.90;;;;;;5095729;28;20188;-91
2023/05/13 04:07:39;;;;;;;24.38;18.20;;;12.00;99.90;;;;;;5109257;28;20631;-90
2023/05/13 04:10:06;;;;;;;25.48;17.73;;;12.00;99.90;;;;;;5110801;28;20185;-91
2023/05/13 04:12:32;;;;;;;24.88;16.40;;;12.00;99.90;;;;;;5097113;28;20226;-92
2023/05/13 04:14:59;;;;;;;25.77;17.60;;;12.00;99.90;;;;;;5114756;28;20189;-92
2023/05/13 04:17:25;;;;;;;26.88;17.25;;;12.00;99.90;;;;;;5094047;28;20185;-91
2023/05/13 04:19:54;;;;;;;22.65;16.30;;;12.00;99.90;;;;;;5081208;28;20262;-90
2023/05/13 04:22:21;;;;;;;25.15;15.85;;;12.00;99.90;;;;;;5080338;28;20643;-87
2023/05/13 04:24:50;;;;;;;28.08;16.52;;;12.10;99.90;;;;;;5106972;28;20209;-90
2023/05/13 04:27:16;;;;;;;27.75;15.80;;;12.00;99.90;;;;;;5089856;28;20220;-87
2023/05/13 04:29:42;;;;;;;33.63;16.08;;;12.00;99.90;;;;;;5095507;28;20617;-91
2023/05/13 04:32:08;;;;;;;24.42;15.13;;;12.00;99.90;;;;;;5094724;28;20256;-90
2023/05/13 04:34:34;;;;;;;22.40;15.55;;;12.10;99.90;;;;;;5078774;28;20601;-88
2023/05/13 04:36:59;;;;;;;22.95;15.05;;;12.10;99.90;;;;;;5094847;28;20185;-86
2023/05/13 04:39:25;;;;;;;25.92;14.52;;;12.10;99.90;;;;;;5113218;28;20658;-88
2023/05/13 04:41:51;;;;;;;26.80;15.25;;;12.10;99.90;;;;;;5088578;28;20178;-86
2023/05/13 04:44:16;;;;;;;24.77;15.02;;;12.20;99.90;;;;;;5091370;28;20204;-85
2023/05/13 04:46:43;;;;;;;23.88;15.18;;;12.20;99.90;;;;;;5094243;28;20661;-88
2023/05/13 04:49:09;;;;;;;24.15;14.75;;;12.20;99.90;;;;;;5077300;28;20177;-90
2023/05/13 04:51:36;;;;;;;19.33;14.75;;;12.30;99.90;;;;;;5061462;28;20188;-84
2023/05/13 04:54:03;;;;;;;24.38;14.73;;;12.30;99.90;;;;;;5094051;28;20258;-88
2023/05/13 04:56:28;;;;;;;20.38;14.25;;;12.30;99.90;;;;;;5085267;28;20220;-89
2023/05/13 04:58:54;;;;;;;25.50;14.27;;;12.40;99.90;;;;;;5065751;28;20253;-89
2023/05/13 05:01:21;;;;;;;22.83;14.43;;;12.40;99.90;;;;;;5076996;28;20199;-87
2023/05/13 05:03:49;;;;;;;25.50;14.15;;;12.50;99.90;;;;;;5077022;28;20205;-86
2023/05/13 05:06:14;;;;;;;18.23;13.43;;;12.50;99.90;;;;;;5077304;28;20562;-83
2023/05/13 05:08:42;;;;;;;22.27;13.10;;;12.50;99.90;;;;;;5093922;28;20698;-85
2023/05/13 05:11:08;;;;;;;22.42;14.07;;;12.60;99.90;;;;;;5077765;28;20178;-83
2023/05/13 05:13:35;;;;;;;20.65;13.10;;;12.70;99.90;;;;;;5075390;28;20260;-84
2023/05/13 05:16:01;;;;;;;24.25;13.73;;;12.70;99.90;;;;;;5087493;28;20191;-83
2023/05/13 05:18:29;;;;;;;23.50;13.65;;;12.70;99.90;;;;;;5075010;28;20193;-84
2023/05/13 05:20:54;;;;;;;19.73;13.02;;;12.80;99.90;;;;;;5109274;28;20181;-84
2023/05/13 05:23:21;;;;;;;24.58;13.75;;;12.80;99.90;;;;;;5104746;28;20201;-84
2023/05/13 05:25:47;;;;;;;23.58;13.65;;;12.90;99.90;;;;;;5074420;28;20217;-86
2023/05/13 05:28:13;;;;;;;24.00;13.10;;;12.90;99.90;;;;;;5072334;28;20189;-83
2023/05/13 05:30:41;;;;;;;21.05;13.60;;;13.00;99.90;;;;;;5092661;28;20311;-84
2023/05/13 05:33:14;;;;;;;24.77;13.20;;;13.00;99.90;;;;;;5077125;28;20203;-85
2023/05/13 05:35:40;;;;;;;21.50;12.90;;;13.10;99.90;;;;;;5082611;28;20188;-89
2023/05/13 05:38:10;;;;;;;20.33;12.98;;;13.10;99.90;;;;;;5095978;28;20246;-84
2023/05/13 05:40:40;;;;;;;19.73;12.63;;;13.20;99.90;;;;;;5097307;28;20723;-85
2023/05/13 05:43:06;;;;;;;18.17;12.45;;;13.30;99.90;;;;;;5097490;28;20630;-84
2023/05/13 05:45:34;;;;;;;22.25;12.93;;;13.30;99.90;;;;;;5114801;28;20293;-84
2023/05/13 05:48:00;;;;;;;22.63;12.30;;;13.40;99.90;;;;;;5099084;28;20170;-84
2023/05/13 05:50:28;;;;;;;18.45;12.05;;;13.40;99.90;;;;;;5077495;28;20192;-80
2023/05/13 05:52:54;;;;;;;21.02;12.75;;;13.50;99.90;;;;;;5078187;28;20173;-82
2023/05/13 05:55:20;;;;;;;17.67;12.00;;;13.50;99.90;;;;;;5040204;28;20174;-82
2023/05/13 05:57:55;;;;;;;28.10;13.25;;;13.60;99.90;;;;;;5092405;28;20185;-83
2023/05/13 06:00:24;;;;;;;18.83;12.32;;;13.70;99.90;;;;;;5081405;28;20188;-85
2023/05/13 06:02:50;;;;;;;19.50;12.05;;;13.70;99.90;;;;;;5114921;28;20309;-84
2023/05/13 06:05:16;;;;;;;18.98;12.48;;;13.80;99.90;;;;;;5080662;28;20693;-82
2023/05/13 06:07:42;;;;;;;16.80;12.60;;;13.90;99.90;;;;;;5095152;28;20277;-81
2023/05/13 06:10:08;;;;;;;17.63;11.88;;;13.90;99.90;;;;;;5111855;28;20610;-81
2023/05/13 06:12:34;;;;;;;16.80;12.00;;;14.00;99.90;;;;;;5095749;28;20195;-84
2023/05/13 06:15:01;;;;;;;26.40;11.80;;;14.00;99.90;;;;;;5054095;28;20203;-81
2023/05/13 06:17:26;;;;;;;16.42;11.43;;;14.10;99.90;;;;;;5111597;28;20595;-81
2023/05/13 06:19:52;;;;;;;18.92;11.30;;;14.20;99.90;;;;;;5093177;28;20618;-89
2023/05/13 06:22:18;;;;;;;17.13;11.32;;;14.30;99.90;;;;;;5080941;28;20251;-84
2023/05/13 06:24:44;;;;;;;21.02;12.27;;;14.30;99.90;;;;;;5067964;28;20217;-82
2023/05/13 06:27:10;;;;;;;20.10;11.63;;;14.40;99.90;;;;;;5071962;28;20222;-83
2023/05/13 06:29:37;;;;;;;19.40;12.07;;;14.50;99.90;;;;;;5081381;28;20289;-83
2023/05/13 06:32:03;;;;;;;16.55;11.32;;;14.50;99.90;;;;;;5064006;28;20190;-86
2023/05/13 06:34:29;;;;;;;15.55;10.85;;;14.60;99.90;;;;;;5066728;28;20180;-88
2023/05/13 06:36:55;;;;;;;23.83;10.75;;;14.70;99.90;;;;;;5074182;28;20710;-82
2023/05/13 06:39:20;;;;;;;18.45;11.57;;;14.80;99.90;;;;;;5075665;28;20182;-82
2023/05/13 06:41:47;;;;;;;17.83;11.05;;;14.90;99.90;;;;;;5079466;28;20270;-81
2023/05/13 06:44:15;;;;;;;21.08;11.48;;;14.90;99.90;;;;;;5079017;28;20221;-88
2023/05/13 06:46:45;;;;;;;19.13;11.45;;;15.00;99.90;;;;;;5082118;28;20178;-87
2023/05/13 06:49:11;;;;;;;17.15;10.65;;;15.10;99.90;;;;;;5081916;28;20265;-83
2023/05/13 06:51:47;;;;;;;19.58;10.85;;;15.20;99.90;;;;;;5061678;28;20643;-85
2023/05/13 06:54:15;;;;;;;17.60;10.40;;;15.30;99.90;;;;;;5039447;28;20190;-83
2023/05/13 06:56:45;;;;;;;20.52;10.60;;;15.40;99.90;;;;;;5097423;28;20205;-81
2023/05/13 06:59:11;;;;;;;14.13;10.13;;;15.50;99.90;;;;;;5048716;28;20187;-83
2023/05/13 07:01:36;;;;;;;19.63;11.07;;;15.60;99.90;;;;;;5065052;28;20180;-84
2023/05/13 07:04:02;;;;;;;19.23;10.07;;;15.70;99.90;;;;;;5057140;28;20589;-82
2023/05/13 07:06:28;;;;;;;18.70;10.32;;;15.80;99.90;;;;;;5088504;28;20198;-83
2023/05/13 07:08:55;;;;;;;17.63;10.98;;;15.90;99.90;;;;;;5070240;28;20179;-83
2023/05/13 07:11:24;;;;;;;19.10;10.30;;;16.00;99.90;;;;;;5050556;28;20263;-84
2023/05/13 07:13:50;;;;;;;19.45;10.30;;;16.10;99.90;;;;;;5070266;28;20566;-83
2023/05/13 07:16:24;;;;;;;16.33;9.88;;;16.20;99.90;;;;;;5071190;28;20518;-83
2023/05/13 07:18:53;;;;;;;13.63;9.13;;;16.30;99.90;;;;;;5040721;28;20193;-83
2023/05/13 07:21:22;;;;;;;18.27;9.57;;;16.40;99.90;;;;;;5071196;28;20563;-84
2023/05/13 07:23:48;;;;;;;21.60;8.77;;;16.50;99.90;;;;;;5076863;28;20301;-84
2023/05/13 07:26:14;;;;;;;21.48;11.02;;;16.60;99.90;;;;;;5087161;28;20301;-83
2023/05/13 07:28:40;;;;;;;17.20;9.80;;;16.70;99.90;;;;;;5089073;28;20181;-84
2023/05/13 07:31:06;;;;;;;16.13;9.52;;;16.80;99.90;;;;;;5114996;28;20177;-85
2023/05/13 07:33:32;;;;;;;18.92;9.23;;;17.00;99.90;;;;;;5099337;28;20392;-85
2023/05/13 07:35:57;;;;;;;19.00;9.60;;;17.10;99.90;;;;;;5101290;28;20173;-86
2023/05/13 07:38:23;;;;;;;15.18;8.65;;;17.20;99.90;;;;;;5081099;28;20301;-84
2023/05/13 07:40:49;;;;;;;20.23;9.30;;;17.40;99.90;;;;;;5097763;28;20207;-83
2023/05/13 07:43:22;;;;;;;15.82;9.30;;;17.50;99.90;;;;;;5066382;28;20647;-82
2023/05/13 07:45:49;;;;;;;20.75;9.23;;;17.60;99.90;;;;;;5084287;28;20211;-83
2023/05/13 07:48:16;;;;;;;10.45;8.82;;;17.70;99.90;;;;;;5079202;28;20205;-84
2023/05/13 07:50:43;;;;;;;15.80;9.40;;;17.90;99.90;;;;;;5093990;28;20173;-83
2023/05/13 07:53:09;;;;;;;17.23;8.73;;;18.00;99.90;;;;;;5118038;28;20357;-85
2023/05/13 07:55:35;;;;;;;12.32;8.60;;;18.10;99.90;;;;;;5072043;28;20604;-89
2023/05/13 07:58:01;;;;;;;16.90;9.10;;;18.20;99.90;;;;;;5095526;28;20182;-85
2023/05/13 08:00:27;;;;;;;13.00;8.88;;;18.40;99.90;;;;;;5095774;28;20185;-85
2023/05/13 08:02:53;;;;;;;13.18;8.40;;;18.50;99.90;;;;;;5065609;28;20177;-83
2023/05/13 08:05:19;;;;;;;9.52;7.68;;;18.60;99.90;;;;;;5109877;28;20244;-82
2023/05/13 08:07:45;;;;;;;12.45;7.68;;;18.70;99.90;;;;;;5080420;28;20181;-81
2023/05/13 08:10:10;;;;;;;17.95;8.20;;;18.80;99.90;;;;;;5048410;28;20178;-91
2023/05/13 08:12:39;;;;;;;13.13;7.50;;;19.00;99.90;;;;;;5079329;28;20185;-90
2023/05/13 08:15:06;;;;;;;14.55;7.65;;;19.10;99.90;;;;;;5110082;28;20189;-91
2023/05/13 08:17:34;;;;;;;12.52;7.80;;;19.20;99.90;;;;;;5101604;28;20182;-89
2023/05/13 08:20:01;;;;;;;10.90;7.97;;;19.30;99.90;;;;;;5067506;28;20173;-83
2023/05/13 08:22:26;;;;;;;10.07;7.38;;;19.40;99.90;;;;;;5083801;28;20190;-83
2023/05/13 08:24:53;;;;;;;9.63;7.15;;;19.50;99.90;;;;;;5119667;28;20664;-83
2023/05/13 08:27:20;;;;;;;11.38;7.38;;;19.60;99.90;;;;;;5088382;28;20233;-84
2023/05/13 08:29:45;;;;;;;11.75;7.15;;;19.70;99.90;;;;;;5090986;28;20215;-84
2023/05/13 08:32:11;;;;;;;10.55;6.97;;;19.80;99.90;;;;;;5107633;28;20177;-83
2023/05/13 08:34:37;;;;;;;11.90;6.97;;;19.90;99.90;;;;;;5106426;28;20182;-84
2023/05/13 08:37:03;;;;;;;10.30;7.25;;;20.00;99.90;;;;;;5104171;28;20185;-84
2023/05/13 08:39:29;;;;;;;11.95;7.53;;;20.00;99.90;;;;;;5098747;28;20619;-87
2023/05/13 08:41:56;;;;;;;12.52;6.78;;;20.10;99.90;;;;;;5077069;28;20186;-83
2023/05/13 08:44:27;;;;;;;10.07;6.65;;;20.20;99.90;;;;;;5098977;28;20206;-83
2023/05/13 08:47:12;;;;;;;8.98;6.22;;;20.30;99.90;;;;;;5104960;28;20178;-88
2023/05/13 08:49:38;;;;;;;9.13;6.60;;;20.40;99.90;;;;;;5105171;28;20178;-87
2023/05/13 08:52:08;;;;;;;15.52;6.72;;;20.50;99.90;;;;;;5102168;28;20209;-85
2023/05/13 08:54:37;;;;;;;13.43;7.15;;;20.50;99.90;;;;;;5082673;28;20192;-90
2023/05/13 08:57:03;;;;;;;11.00;6.63;;;20.60;99.90;;;;;;5092455;28;20179;-88
2023/05/13 08:59:29;;;;;;;10.85;6.68;;;20.70;99.90;;;;;;5081072;28;20556;-87
2023/05/13 09:01:56;;;;;;;12.48;6.70;;;20.70;99.90;;;;;;5097709;28;20174;-86
2023/05/13 09:04:22;;;;;;;10.60;6.85;;;20.80;99.90;;;;;;5102088;28;20233;-88
2023/05/13 09:06:48;;;;;;;11.57;6.10;;;20.90;99.90;;;;;;5064181;28;20189;-89
2023/05/13 09:09:14;;;;;;;11.30;6.90;;;21.00;99.90;;;;;;5070542;28;20250;-88
2023/05/13 09:11:40;;;;;;;10.00;6.20;;;21.10;99.90;;;;;;5062848;28;20607;-85
2023/05/13 09:14:10;;;;;;;14.32;6.20;;;21.20;99.90;;;;;;5101319;28;20201;-86
2023/05/13 09:16:37;;;;;;;8.75;5.70;;;21.20;99.90;;;;;;5087445;28;20210;-85
2023/05/13 09:19:05;;;;;;;13.73;5.90;;;21.30;99.30;;;;;;5086628;28;20179;-86
2023/05/13 09:21:34;;;;;;;13.55;6.13;;;21.40;98.90;;;;;;5094022;28;20187;-87
2023/05/13 09:24:17;;;;;;;11.35;6.35;;;21.40;98.60;;;;;;5092234;28;20256;-85
2023/05/13 09:26:44;;;;;;;13.02;6.53;;;21.60;98.90;;;;;;5076121;28;20223;-83
2023/05/13 09:29:29;;;;;;;10.60;5.95;;;21.60;98.60;;;;;;5084760;28;20206;-86
2023/05/13 09:31:58;;;;;;;13.02;6.40;;;21.70;98.30;;;;;;5084001;28;20181;-85
2023/05/13 09:34:26;;;;;;;9.30;5.80;;;21.80;98.20;;;;;;5088907;28;20631;-84
2023/05/13 09:37:04;;;;;;;11.57;6.05;;;21.90;97.80;;;;;;5074329;28;20191;-83
2023/05/13 09:39:32;;;;;;;13.02;5.68;;;22.00;97.70;;;;;;5083914;28;20238;-84
2023/05/13 09:41:59;;;;;;;8.90;6.22;;;22.10;97.60;;;;;;5092497;28;20190;-84
2023/05/13 09:44:26;;;;;;;10.95;6.22;;;22.10;97.40;;;;;;5094376;28;20238;-84
2023/05/13 09:46:52;;;;;;;13.85;6.53;;;22.20;97.70;;;;;;5065291;28;20193;-87
2023/05/13 09:49:22;;;;;;;12.02;6.65;;;22.30;98.10;;;;;;5081099;28;20175;-86
2023/05/13 09:51:51;;;;;;;11.50;6.47;;;22.40;98.00;;;;;;5069782;28;20187;-87
2023/05/13 09:54:38;;;;;;;14.90;6.30;;;22.40;97.70;;;;;;5060268;28;20581;-86
2023/05/13 09:57:04;;;;;;;12.82;6.40;;;22.50;97.60;;;;;;5074007;28;20232;-86
2023/05/13 09:59:34;;;;;;;9.27;6.47;;;22.50;97.40;;;;;;5058222;28;20211;-87
2023/05/13 10:02:04;;;;;;;13.20;6.78;;;22.60;97.20;;;;;;5087060;28;20178;-84
2023/05/13 10:04:30;;;;;;;11.85;6.88;;;22.60;97.30;;;;;;5080117;28;20210;-83
2023/05/13 10:06:58;;;;;;;15.80;7.10;;;22.60;97.50;;;;;;5071774;28;20185;-85
2023/05/13 10:09:27;;;;;;;11.13;6.32;;;22.70;97.50;;;;;;5086252;28;20790;-87
2023/05/13 10:11:56;;;;;;;13.38;6.88;;;22.70;97.40;;;;;;5093343;28;20635;-86
2023/05/13 10:14:22;;;;;;;11.75;6.65;;;22.70;97.20;;;;;;5079702;28;20182;-85
2023/05/13 10:16:50;;;;;;;13.00;6.72;;;22.80;96.90;;;;;;5082296;28;20235;-86
2023/05/13 10:19:17;;;;;;;9.85;6.72;;;22.80;96.70;;;;;;5065222;28;20189;-86
2023/05/13 10:21:43;;;;;;;13.20;6.43;;;22.80;96.30;;;;;;5079395;28;20652;-84
2023/05/13 10:24:10;;;;;;;13.52;7.18;;;22.80;96.00;;;;;;5100002;28;20218;-86
2023/05/13 10:26:36;;;;;;;10.93;6.10;;;22.90;96.20;;;;;;5057189;28;20676;-87
2023/05/13 10:29:03;;;;;;;11.32;6.22;;;22.90;96.10;;;;;;5099519;28;20201;-85
2023/05/13 10:31:29;;;;;;;11.60;6.97;;;23.00;96.00;;;;;;5100613;28;20174;-86
2023/05/13 10:33:55;;;;;;;11.25;6.47;;;23.10;95.80;;;;;;5077265;28;20198;-84
2023/05/13 10:36:46;;;;;;;14.50;6.90;;;23.20;95.60;;;;;;5079544;28;20179;-85
2023/05/13 10:39:40;;;;;;;12.40;7.03;;;23.30;95.00;;;;;;5068993;28;20191;-85
2023/05/13 10:42:21;;;;;;;13.35;6.22;;;23.30;94.60;;;;;;5079100;28;20200;-85
2023/05/13 10:44:53;;;;;;;9.35;6.35;;;23.30;94.80;;;;;;5098079;28;20209;-85
2023/05/13 10:47:19;;;;;;;10.63;6.13;;;23.40;94.70;;;;;;5094195;28;20188;-85
2023/05/13 10:49:53;;;;;;;12.35;6.32;;;23.50;94.70;;;;;;5093120;28;20265;-85
2023/05/13 10:52:19;;;;;;;10.55;6.30;;;23.60;94.40;;;;;;5089809;28;20263;-85
2023/05/13 10:55:03;;;;;;;11.55;6.38;;;23.60;94.20;;;;;;5092357;28;20611;-85
2023/05/13 10:57:36;;;;;;;10.38;6.00;;;23.60;93.70;;;;;;5093662;28;20538;-86
2023/05/13 11:00:16;;;;;;;9.25;5.70;;;23.60;93.20;;;;;;5092386;28;20181;-85
2023/05/13 11:02:42;;;;;;;15.13;5.85;;;23.60;93.20;;;;;;5071843;28;20391;-86
2023/05/13 11:05:08;;;;;;;9.55;5.57;;;23.70;92.90;;;;;;5043871;28;20258;-86
2023/05/13 11:07:38;;;;;;;12.00;6.20;;;23.70;92.60;;;;;;5072164;28;20167;-85
2023/05/13 11:10:24;;;;;;;10.43;6.22;;;23.70;93.00;;;;;;5073210;28;20275;-85
2023/05/13 11:13:16;;;;;;;9.52;5.53;;;23.80;92.60;;;;;;5084890;28;20190;-85
2023/05/13 11:15:49;;;;;;;12.15;5.93;;;23.80;91.60;;;;;;5067619;28;20252;-85
2023/05/13 11:18:15;;;;;;;10.65;5.97;;;23.80;92.80;;;;;;5071686;28;20197;-86
2023/05/13 11:20:52;;;;;;;8.25;6.03;;;23.80;92.40;;;;;;5061020;28;20201;-85
2023/05/13 11:23:19;;;;;;;16.08;5.70;;;23.90;92.40;;;;;;5089931;28;20604;-85
2023/05/13 11:25:45;;;;;;;9.07;5.57;;;24.00;92.40;;;;;;5092536;28;20178;-86
2023/05/13 11:28:17;;;;;;;9.77;6.22;;;24.00;92.30;;;;;;5113980;28;20181;-85
2023/05/13 11:30:53;;;;;;;12.98;7.15;;;24.10;92.40;;;;;;5098517;28;20243;-85
2023/05/13 11:33:20;;;;;;;11.13;7.55;;;24.20;92.90;;;;;;5093140;28;20184;-85
2023/05/13 11:35:55;;;;;;;17.98;7.00;;;24.20;93.40;;;;;;5059454;28;20202;-85
2023/05/13 11:38:24;;;;;;;15.10;6.75;;;24.20;93.70;;;;;;5118379;27;20199;-85
2023/05/13 11:40:51;;;;;;;12.25;7.47;;;24.20;93.70;;;;;;5133897;27;20207;-85
2023/05/13 11:43:20;;;;;;;10.93;7.30;;;24.20;94.10;;;;;;5133844;27;20173;-86
2023/05/13 11:45:47;;;;;;;11.43;7.88;;;24.20;94.60;;;;;;5133516;27;20200;-85
2023/05/13 11:48:20;;;;;;;11.38;7.80;;;24.20;94.80;;;;;;5074912;28;20584;-85
2023/05/13 11:50:48;;;;;;;11.82;8.27;;;24.20;94.90;;;;;;5074580;28;20178;-85
2023/05/13 11:53:19;;;;;;;12.52;7.45;;;24.20;94.80;;;;;;5074805;28;20648;-85
2023/05/13 11:55:45;;;;;;;14.10;8.65;;;24.10;95.00;;;;;;5091517;28;20209;-85
2023/05/13 11:58:16;;;;;;;11.15;7.70;;;24.10;95.40;;;;;;5088913;28;20221;-85
2023/05/13 12:00:42;;;;;;;13.45;8.10;;;24.00;95.60;;;;;;5094755;28;20188;-85
2023/05/13 12:03:10;;;;;;;11.77;8.38;;;24.00;95.70;;;;;;5111697;28;20289;-85
2023/05/13 12:05:40;;;;;;;17.30;8.30;;;24.00;95.90;;;;;;5080013;28;20714;-85
2023/05/13 12:08:08;;;;;;;12.38;7.63;;;24.00;95.90;;;;;;5094743;28;20173;-84
2023/05/13 12:10:34;;;;;;;11.48;7.25;;;24.00;95.90;;;;;;5078401;28;20181;-85
2023/05/13 12:13:01;;;;;;;12.73;6.80;;;24.00;95.80;;;;;;5077586;28;20650;-85
2023/05/13 12:15:27;;;;;;;13.35;6.90;;;24.00;95.40;;;;;;5075144;28;20258;-84
2023/05/13 12:17:53;;;;;;;13.02;8.35;;;24.10;95.10;;;;;;5094083;28;20215;-85
2023/05/13 12:20:23;;;;;;;15.82;7.70;;;24.10;95.40;;;;;;5057764;28;20180;-85
2023/05/13 12:22:52;;;;;;;15.13;7.13;;;24.10;95.60;;;;;;5074191;28;20665;-84
2023/05/13 12:25:45;;;;;;;15.43;6.60;;;24.20;95.80;;;;;;5092216;28;20206;-85
2023/05/13 12:28:15;;;;;;;13.55;6.18;;;24.20;95.40;;;;;;5075950;28;20541;-85
2023/05/13 12:30:58;;;;;;;12.82;5.90;;;24.20;94.50;;;;;;5113231;28;20185;-84
2023/05/13 12:33:29;;;;;;;11.60;6.32;;;24.20;93.80;;;;;;5106686;28;20200;-85
2023/05/13 12:36:21;;;;;;;15.25;6.50;;;24.20;93.90;;;;;;5074405;28;20177;-84